ENRS/RET METAR and TAF weather

Enter ICAO airport designator
Station Type Date Time Source
ENRS METAR 2018/01/22 16:50 UTC NOAA

ENRS 221650Z 09016KT 2000 -SN OVC015 M01/M01 Q1008


Station Type Date Time Source
ENRS Decoded METAR 2018/01/22 16:50 UTC NOAA

Rost Flyplass, Norway (ENRS) 67-31N 012-06E
Jan 22, 2018 - 11:50 AM EST / 2018.01.22 1650 UTC
Wind: from the E (090 degrees) at 18 MPH (16 KT):0
Visibility: 1 mile(s):0
Sky conditions: overcast
Weather: light snow
Temperature: 30 F (-1 C)
Windchill: 17 F (-8 C):1
Dew Point: 30 F (-1 C)
Relative Humidity: 100%
Pressure (altimeter): 29.77 in. Hg (1008 hPa)
ob: ENRS 221650Z 09016KT 2000 -SN OVC015 M01/M01 Q1008
cycle: 17

Station Type Date Time Source
ENRS TAF UTC NOAA

Error!


Example: see airport list